Time;durP1;ratioP1;P1;durP2;ratioP2;P2;SDS_P1;SDS_P2;PMS_P1;PMS_P2;Temp;Humidity;BMP_temperature;BMP_pressure;BME280_temperature;BME280_humidity;BME280_pressure;Samples;Min_cycle;Max_cycle;Signal;HPM_P1;HPM_P2
2021/01/18 00:00:15;;;;;;;23.70;13.93;;;;;;;;;;5133928;27;20050;-69
2021/01/18 00:02:41;;;;;;;23.17;14.23;;;;;;;;;;5134216;27;20102;-69
2021/01/18 00:05:07;;;;;;;21.17;12.80;;;;;;;;;;5134052;27;20106;-69
2021/01/18 00:07:52;;;;;;;20.20;13.03;;;;;;;;;;5133872;27;20030;-69
2021/01/18 00:10:20;;;;;;;20.47;12.03;;;;;;;;;;5133910;27;20483;-69
2021/01/18 00:12:47;;;;;;;20.17;13.00;;;;;;;;;;5133955;27;20024;-69
2021/01/18 00:15:13;;;;;;;24.57;13.57;;;;;;;;;;5134021;27;20102;-69
2021/01/18 00:17:39;;;;;;;23.87;14.03;;;;;;;;;;5133690;27;20439;-69
2021/01/18 00:20:05;;;;;;;20.97;14.00;;;;;;;;;;5137454;27;20380;-69
2021/01/18 00:22:31;;;;;;;19.60;12.60;;;;;;;;;;5138019;27;20051;-68
2021/01/18 00:24:58;;;;;;;20.43;12.63;;;;;;;;;;5137802;27;20050;-69
2021/01/18 00:27:24;;;;;;;22.67;13.00;;;;;;;;;;5137469;27;20027;-69
2021/01/18 00:29:50;;;;;;;22.53;14.17;;;;;;;;;;5137771;27;20031;-69
2021/01/18 00:32:16;;;;;;;24.00;14.30;;;;;;;;;;5137881;27;20024;-69
2021/01/18 00:34:42;;;;;;;19.40;13.30;;;;;;;;;;5137841;27;20030;-69
2021/01/18 00:37:09;;;;;;;20.90;13.00;;;;;;;;;;5137596;27;20023;-69
2021/01/18 00:39:36;;;;;;;20.63;13.13;;;;;;;;;;5137686;27;20071;-69
2021/01/18 00:42:02;;;;;;;20.87;13.13;;;;;;;;;;5137749;27;20099;-69
2021/01/18 00:44:28;;;;;;;20.73;13.50;;;;;;;;;;5137699;27;20053;-69
2021/01/18 00:46:54;;;;;;;21.13;13.30;;;;;;;;;;5137436;27;20023;-69
2021/01/18 00:49:20;;;;;;;21.03;13.67;;;;;;;;;;5137276;27;20376;-69
2021/01/18 00:51:46;;;;;;;19.50;13.00;;;;;;;;;;5137414;27;20094;-69
2021/01/18 00:54:12;;;;;;;20.80;13.50;;;;;;;;;;5137461;27;20023;-69
2021/01/18 00:56:38;;;;;;;20.53;13.00;;;;;;;;;;5137521;27;20025;-68
2021/01/18 00:59:04;;;;;;;22.17;14.00;;;;;;;;;;5137348;27;20079;-68
2021/01/18 01:01:30;;;;;;;19.17;12.53;;;;;;;;;;5137155;27;20031;-69
2021/01/18 01:03:56;;;;;;;22.60;13.73;;;;;;;;;;5137224;27;20015;-69
2021/01/18 01:06:22;;;;;;;23.73;13.70;;;;;;;;;;5136859;27;20048;-68
2021/01/18 01:08:48;;;;;;;21.33;12.67;;;;;;;;;;5136842;27;20016;-69
2021/01/18 01:11:14;;;;;;;26.70;14.83;;;;;;;;;;5137004;27;20102;-69
2021/01/18 01:13:40;;;;;;;21.73;13.77;;;;;;;;;;5136971;27;20094;-69
2021/01/18 01:16:06;;;;;;;22.10;13.60;;;;;;;;;;5137163;27;20023;-69
2021/01/18 01:18:32;;;;;;;22.33;13.23;;;;;;;;;;5135585;27;20023;-69
2021/01/18 01:20:58;;;;;;;21.93;13.90;;;;;;;;;;5136897;27;20080;-69
2021/01/18 01:23:24;;;;;;;21.60;12.93;;;;;;;;;;5137030;27;20022;-69
2021/01/18 01:25:50;;;;;;;21.03;13.30;;;;;;;;;;5136769;27;20027;-68
2021/01/18 01:28:16;;;;;;;19.60;12.83;;;;;;;;;;5136311;27;20050;-69
2021/01/18 01:30:42;;;;;;;22.97;13.60;;;;;;;;;;5135672;27;20045;-68
2021/01/18 01:33:09;;;;;;;21.83;13.80;;;;;;;;;;5136498;27;20531;-68
2021/01/18 01:35:35;;;;;;;20.97;13.30;;;;;;;;;;5136511;27;20488;-69
2021/01/18 01:38:01;;;;;;;25.20;13.77;;;;;;;;;;5136351;27;20403;-68
2021/01/18 01:40:27;;;;;;;22.67;13.53;;;;;;;;;;5136233;27;20035;-68
2021/01/18 01:42:53;;;;;;;20.03;13.20;;;;;;;;;;5136326;27;20019;-69
2021/01/18 01:45:20;;;;;;;21.17;13.20;;;;;;;;;;5136469;27;20056;-69
2021/01/18 01:47:56;;;;;;;20.23;13.33;;;;;;;;;;5136397;27;20023;-69
2021/01/18 01:50:24;;;;;;;19.27;12.47;;;;;;;;;;5136458;27;20023;-69
2021/01/18 01:52:56;;;;;;;19.77;12.13;;;;;;;;;;5136052;27;20425;-69
2021/01/18 01:55:28;;;;;;;21.73;12.97;;;;;;;;;;5136111;27;20068;-69
2021/01/18 01:57:54;;;;;;;22.20;13.03;;;;;;;;;;5135218;27;20253;-69
2021/01/18 02:00:21;;;;;;;20.77;12.67;;;;;;;;;;5133153;27;20384;-69
2021/01/18 02:02:47;;;;;;;22.50;13.07;;;;;;;;;;5133172;27;20024;-69
2021/01/18 02:05:16;;;;;;;18.87;12.57;;;;;;;;;;5134559;27;20020;-69
2021/01/18 02:07:42;;;;;;;19.67;12.80;;;;;;;;;;5135914;27;20400;-68
2021/01/18 02:10:09;;;;;;;21.30;12.93;;;;;;;;;;5135835;27;20050;-69
2021/01/18 02:12:35;;;;;;;19.97;12.40;;;;;;;;;;5135259;27;20019;-69
2021/01/18 02:15:07;;;;;;;20.97;12.63;;;;;;;;;;5135676;27;20068;-69
2021/01/18 02:17:36;;;;;;;17.57;11.90;;;;;;;;;;5135443;27;20027;-69
2021/01/18 02:20:21;;;;;;;20.07;12.43;;;;;;;;;;5135269;27;20379;-69
2021/01/18 02:23:02;;;;;;;20.57;13.30;;;;;;;;;;5134312;27;20383;-69
2021/01/18 02:25:39;;;;;;;20.43;12.50;;;;;;;;;;5135556;27;20019;-68
2021/01/18 02:28:14;;;;;;;23.33;12.20;;;;;;;;;;5134689;27;20461;-69
2021/01/18 02:30:59;;;;;;;20.93;12.33;;;;;;;;;;5135408;27;20070;-69
2021/01/18 02:33:28;;;;;;;20.53;12.63;;;;;;;;;;5135286;27;20471;-68
2021/01/18 02:35:54;;;;;;;20.40;12.53;;;;;;;;;;5134903;27;20513;-69
2021/01/18 02:38:23;;;;;;;21.13;12.87;;;;;;;;;;5135125;27;20459;-69
2021/01/18 02:41:01;;;;;;;20.60;13.10;;;;;;;;;;5135302;27;20042;-68
2021/01/18 02:43:29;;;;;;;21.20;12.87;;;;;;;;;;5134795;27;20024;-68
2021/01/18 02:45:56;;;;;;;19.30;12.33;;;;;;;;;;5135150;27;20241;-69
2021/01/18 02:48:24;;;;;;;22.47;13.10;;;;;;;;;;5134727;27;20030;-69
2021/01/18 02:50:50;;;;;;;19.23;12.57;;;;;;;;;;5134780;27;20027;-68
2021/01/18 02:53:17;;;;;;;19.33;12.93;;;;;;;;;;5134656;27;20121;-68
2021/01/18 02:55:43;;;;;;;21.53;12.70;;;;;;;;;;5134763;27;20027;-68
2021/01/18 02:58:10;;;;;;;19.87;12.70;;;;;;;;;;5134559;27;20388;-69
2021/01/18 03:00:42;;;;;;;21.60;12.53;;;;;;;;;;5134994;27;20387;-69
2021/01/18 03:03:27;;;;;;;18.80;12.50;;;;;;;;;;5134926;27;20015;-69
2021/01/18 03:05:56;;;;;;;20.73;12.40;;;;;;;;;;5135070;27;20041;-69
2021/01/18 03:08:30;;;;;;;22.47;12.93;;;;;;;;;;5134684;27;20485;-69
2021/01/18 03:11:03;;;;;;;20.30;12.97;;;;;;;;;;5134760;27;20027;-69
2021/01/18 03:13:29;;;;;;;;;;;;;;;;;;5134952;27;20027;-68
2021/01/18 03:15:59;;;;;;;20.60;12.80;;;;;;;;;;5134469;27;19910;-69
2021/01/18 03:18:26;;;;;;;19.57;12.87;;;;;;;;;;5134739;27;20031;-69
2021/01/18 03:20:56;;;;;;;20.50;13.70;;;;;;;;;;5134535;27;20046;-69
2021/01/18 03:23:22;;;;;;;19.50;12.90;;;;;;;;;;5134245;27;20421;-69
2021/01/18 03:25:49;;;;;;;18.23;11.77;;;;;;;;;;5134259;27;20031;-69
2021/01/18 03:28:15;;;;;;;21.93;12.70;;;;;;;;;;5134144;27;20047;-69
2021/01/18 03:30:41;;;;;;;20.07;12.73;;;;;;;;;;5134440;27;20031;-68
2021/01/18 03:33:07;;;;;;;17.60;11.47;;;;;;;;;;5134176;27;20030;-68
2021/01/18 03:35:34;;;;;;;19.23;12.30;;;;;;;;;;5134277;27;20035;-69
2021/01/18 03:38:00;;;;;;;19.77;11.87;;;;;;;;;;5134103;27;20065;-69
2021/01/18 03:40:27;;;;;;;18.13;12.10;;;;;;;;;;5134110;27;20417;-69
2021/01/18 03:43:04;;;;;;;19.07;12.30;;;;;;;;;;5134311;27;20061;-68
2021/01/18 03:45:31;;;;;;;18.13;11.73;;;;;;;;;;5134367;27;20084;-68
2021/01/18 03:47:57;;;;;;;18.20;11.70;;;;;;;;;;5134101;27;20027;-69
2021/01/18 03:50:24;;;;;;;18.20;11.10;;;;;;;;;;5134485;27;20388;-69
2021/01/18 03:52:50;;;;;;;19.13;11.77;;;;;;;;;;5133783;27;20031;-69
2021/01/18 03:55:17;;;;;;;19.83;12.07;;;;;;;;;;5133983;27;20027;-69
2021/01/18 03:57:45;;;;;;;17.80;11.03;;;;;;;;;;5133833;27;20030;-69
2021/01/18 04:00:11;;;;;;;18.40;10.97;;;;;;;;;;5133804;27;20043;-69
2021/01/18 04:02:37;;;;;;;19.50;12.33;;;;;;;;;;5133826;27;20019;-68
2021/01/18 04:05:04;;;;;;;19.40;11.80;;;;;;;;;;5133745;27;20034;-69
2021/01/18 04:07:30;;;;;;;18.27;11.47;;;;;;;;;;5134105;27;20084;-69
2021/01/18 04:09:56;;;;;;;18.70;12.20;;;;;;;;;;5133982;27;20072;-69
2021/01/18 04:12:22;;;;;;;19.57;12.27;;;;;;;;;;5133852;27;20106;-69
2021/01/18 04:14:49;;;;;;;18.43;10.90;;;;;;;;;;5133870;27;20027;-68
2021/01/18 04:17:16;;;;;;;18.80;11.33;;;;;;;;;;5133826;27;20028;-69
2021/01/18 04:19:42;;;;;;;18.10;11.27;;;;;;;;;;5133923;27;20027;-68
2021/01/18 04:22:08;;;;;;;18.80;11.80;;;;;;;;;;5133696;27;20107;-68
2021/01/18 04:24:34;;;;;;;18.53;11.90;;;;;;;;;;5133857;27;20031;-69
2021/01/18 04:27:01;;;;;;;18.50;11.77;;;;;;;;;;5133782;27;20038;-69
2021/01/18 04:29:27;;;;;;;17.97;11.57;;;;;;;;;;5133570;27;20047;-69
2021/01/18 04:31:53;;;;;;;17.53;11.60;;;;;;;;;;5133924;27;20035;-69
2021/01/18 04:34:20;;;;;;;17.73;11.57;;;;;;;;;;5134023;27;20096;-69
2021/01/18 04:36:46;;;;;;;17.83;11.13;;;;;;;;;;5133301;27;20030;-69
2021/01/18 04:39:12;;;;;;;20.23;12.30;;;;;;;;;;5133590;27;20027;-69
2021/01/18 04:41:43;;;;;;;19.63;11.73;;;;;;;;;;5133621;27;20035;-69
2021/01/18 04:44:09;;;;;;;22.70;11.87;;;;;;;;;;5133437;27;20019;-68
2021/01/18 04:46:40;;;;;;;18.40;10.93;;;;;;;;;;5133539;27;20106;-69
2021/01/18 04:49:07;;;;;;;19.03;12.10;;;;;;;;;;5133336;27;20407;-69
2021/01/18 04:51:53;;;;;;;18.23;12.27;;;;;;;;;;5133612;27;20028;-69
2021/01/18 04:54:23;;;;;;;19.70;11.93;;;;;;;;;;5133107;28;20027;-69
2021/01/18 04:57:07;;;;;;;18.60;11.77;;;;;;;;;;5133330;27;20027;-69
2021/01/18 04:59:44;;;;;;;16.43;10.93;;;;;;;;;;5133336;27;20035;-69
2021/01/18 05:02:17;;;;;;;19.27;11.77;;;;;;;;;;5133679;27;20035;-69
2021/01/18 05:04:44;;;;;;;19.60;11.80;;;;;;;;;;5133643;27;20034;-69
2021/01/18 05:07:29;;;;;;;20.10;12.13;;;;;;;;;;5136637;27;20063;-69
2021/01/18 05:09:58;;;;;;;17.47;11.60;;;;;;;;;;5137065;27;20395;-69
2021/01/18 05:12:24;;;;;;;17.00;10.93;;;;;;;;;;5136966;27;20019;-68
2021/01/18 05:14:51;;;;;;;17.80;11.27;;;;;;;;;;5136851;27;20025;-69
2021/01/18 05:17:35;;;;;;;17.23;11.10;;;;;;;;;;5136836;27;20047;-69
2021/01/18 05:20:02;;;;;;;17.13;11.20;;;;;;;;;;5137000;27;20464;-69
2021/01/18 05:22:28;;;;;;;20.63;11.70;;;;;;;;;;5136810;27;20076;-69
2021/01/18 05:24:54;;;;;;;17.90;11.40;;;;;;;;;;5137005;27;20020;-69
2021/01/18 05:27:20;;;;;;;18.57;11.67;;;;;;;;;;5136698;27;20102;-69
2021/01/18 05:29:55;;;;;;;18.57;11.20;;;;;;;;;;5136788;27;20031;-69
2021/01/18 05:32:22;;;;;;;19.90;11.60;;;;;;;;;;5136749;27;20023;-69
2021/01/18 05:34:48;;;;;;;17.37;11.20;;;;;;;;;;5135330;27;20027;-69
2021/01/18 05:37:14;;;;;;;20.10;11.53;;;;;;;;;;5136634;27;20027;-69
2021/01/18 05:39:40;;;;;;;21.03;12.10;;;;;;;;;;5136492;27;20026;-69
2021/01/18 05:42:17;;;;;;;20.93;12.63;;;;;;;;;;5136835;27;20054;-69
2021/01/18 05:44:43;;;;;;;18.00;11.53;;;;;;;;;;5136277;27;20027;-69
2021/01/18 05:47:15;;;;;;;19.30;12.07;;;;;;;;;;5136573;27;20028;-68
2021/01/18 05:49:41;;;;;;;17.80;10.77;;;;;;;;;;5136616;27;20028;-69
2021/01/18 05:52:22;;;;;;;19.43;10.83;;;;;;;;;;5136506;27;20103;-69
2021/01/18 05:54:48;;;;;;;17.43;11.20;;;;;;;;;;5136285;27;20072;-69
2021/01/18 05:57:15;;;;;;;21.00;12.43;;;;;;;;;;5136321;27;20050;-68
2021/01/18 05:59:42;;;;;;;18.03;11.40;;;;;;;;;;5136132;27;20476;-69
2021/01/18 06:02:09;;;;;;;19.67;11.50;;;;;;;;;;5136110;27;20031;-68
2021/01/18 06:04:35;;;;;;;18.53;10.93;;;;;;;;;;5135925;27;20023;-69
2021/01/18 06:07:03;;;;;;;17.20;11.53;;;;;;;;;;5136149;27;20410;-69
2021/01/18 06:09:48;;;;;;;20.33;12.00;;;;;;;;;;5135936;27;20029;-69
2021/01/18 06:12:24;;;;;;;24.50;13.13;;;;;;;;;;5135732;27;20037;-68
2021/01/18 06:15:02;;;;;;;19.03;12.23;;;;;;;;;;5136135;27;20027;-69
2021/01/18 06:17:29;;;;;;;20.03;12.73;;;;;;;;;;5135569;27;20019;-69
2021/01/18 06:19:55;;;;;;;19.77;11.97;;;;;;;;;;5134472;27;20031;-69
2021/01/18 06:22:26;;;;;;;23.00;12.27;;;;;;;;;;5135820;27;20067;-68
2021/01/18 06:24:52;;;;;;;29.50;13.03;;;;;;;;;;5135926;27;20057;-69
2021/01/18 06:27:30;;;;;;;23.63;13.50;;;;;;;;;;5135400;27;20027;-68
2021/01/18 06:29:56;;;;;;;24.90;12.97;;;;;;;;;;5135823;27;20035;-69
2021/01/18 06:32:27;;;;;;;21.80;13.37;;;;;;;;;;5135718;27;20030;-69
2021/01/18 06:35:00;;;;;;;21.23;13.03;;;;;;;;;;5135230;27;20035;-69
2021/01/18 06:37:30;;;;;;;23.88;13.30;;;;;;;;;;5135344;27;20072;-69
2021/01/18 06:39:57;;;;;;;26.30;13.20;;;;;;;;;;5135460;27;20035;-69
2021/01/18 06:42:23;;;;;;;21.27;13.40;;;;;;;;;;5135312;27;20035;-69
2021/01/18 06:44:50;;;;;;;20.57;12.47;;;;;;;;;;5135119;27;20467;-69
2021/01/18 06:47:30;;;;;;;22.83;13.30;;;;;;;;;;5135064;27;20027;-68
2021/01/18 06:49:57;;;;;;;21.63;12.87;;;;;;;;;;5134932;27;20055;-69
2021/01/18 06:52:24;;;;;;;20.80;12.47;;;;;;;;;;5133382;27;20379;-69
2021/01/18 06:55:11;;;;;;;23.73;13.87;;;;;;;;;;5134904;27;20038;-69
2021/01/18 06:57:48;;;;;;;26.40;15.57;;;;;;;;;;5134890;27;20031;-69
2021/01/18 07:00:15;;;;;;;35.20;21.30;;;;;;;;;;5136169;27;20039;-69
2021/01/18 07:02:53;;;;;;;32.60;20.33;;;;;;;;;;5134958;27;20080;-69
2021/01/18 07:05:26;;;;;;;40.03;26.23;;;;;;;;;;5134790;27;20456;-69
2021/01/18 07:07:52;;;;;;;;;;;;;;;;;;5135276;27;20050;-70
2021/01/18 07:10:22;;;;;;;28.70;17.13;;;;;;;;;;5134947;27;20359;-69
2021/01/18 07:12:48;;;;;;;32.03;16.67;;;;;;;;;;5134597;27;20033;-69
2021/01/18 07:15:15;;;;;;;26.00;15.40;;;;;;;;;;5134631;27;20041;-69
2021/01/18 07:17:44;;;;;;;24.43;14.10;;;;;;;;;;5134532;27;20023;-69
2021/01/18 07:20:27;;;;;;;26.30;14.27;;;;;;;;;;5134546;27;20035;-69
2021/01/18 07:23:08;;;;;;;23.95;13.80;;;;;;;;;;5134514;27;20023;-70
2021/01/18 07:25:41;;;;;;;23.07;14.03;;;;;;;;;;5132392;27;20042;-69
2021/01/18 07:28:09;;;;;;;24.90;14.87;;;;;;;;;;5131358;27;20039;-70
2021/01/18 07:30:35;;;;;;;25.07;14.60;;;;;;;;;;5132411;27;20383;-69
2021/01/18 07:33:08;;;;;;;24.27;14.67;;;;;;;;;;5129960;27;20450;-69
2021/01/18 07:35:35;;;;;;;23.08;14.02;;;;;;;;;;5129969;27;20116;-69
2021/01/18 07:38:10;;;;;;;31.10;14.37;;;;;;;;;;5131184;27;20593;-69
2021/01/18 07:40:36;;;;;;;23.43;13.47;;;;;;;;;;5133545;27;20106;-70
2021/01/18 07:43:02;;;;;;;27.43;13.90;;;;;;;;;;5134318;27;20038;-70
2021/01/18 07:45:28;;;;;;;26.67;14.30;;;;;;;;;;5134036;27;20119;-69
2021/01/18 07:47:54;;;;;;;25.33;13.90;;;;;;;;;;5134198;27;20027;-67
2021/01/18 07:50:49;;;;;;;21.73;12.77;;;;;;;;;;5134267;27;20147;-66
2021/01/18 07:53:17;;;;;;;25.33;13.30;;;;;;;;;;5120865;27;20534;-67
2021/01/18 07:55:43;;;;;;;23.07;13.43;;;;;;;;;;5134117;27;20019;-66
2021/01/18 07:58:12;;;;;;;21.87;13.77;;;;;;;;;;5134015;27;20027;-67
2021/01/18 08:00:38;;;;;;;20.23;12.90;;;;;;;;;;5133911;27;20046;-65
2021/01/18 08:03:10;;;;;;;22.97;13.50;;;;;;;;;;5134195;27;20024;-65
2021/01/18 08:05:37;;;;;;;21.70;13.52;;;;;;;;;;5133938;27;20027;-65
2021/01/18 08:08:06;;;;;;;22.47;14.00;;;;;;;;;;5131820;27;20027;-67
2021/01/18 08:10:51;;;;;;;24.30;13.40;;;;;;;;;;5133256;27;20548;-67
2021/01/18 08:13:30;;;;;;;25.60;14.07;;;;;;;;;;5132925;27;20110;-66
2021/01/18 08:15:56;;;;;;;22.03;13.43;;;;;;;;;;5132439;27;20015;-67
2021/01/18 08:18:27;;;;;;;22.07;13.60;;;;;;;;;;5127032;27;20096;-67
2021/01/18 08:20:53;;;;;;;28.37;13.87;;;;;;;;;;5112229;28;20122;-68
2021/01/18 08:23:37;;;;;;;29.67;15.70;;;;;;;;;;5112753;28;20460;-67
2021/01/18 08:26:05;;;;;;;28.30;15.47;;;;;;;;;;5112431;28;20027;-66
2021/01/18 08:28:34;;;;;;;32.23;15.97;;;;;;;;;;5112271;28;20062;-67
2021/01/18 08:31:00;;;;;;;28.57;15.57;;;;;;;;;;5112911;28;20041;-67
2021/01/18 08:33:27;;;;;;;28.47;16.50;;;;;;;;;;5112714;28;20024;-67
2021/01/18 08:35:55;;;;;;;33.17;16.30;;;;;;;;;;5112827;28;20107;-68
2021/01/18 08:38:24;;;;;;;25.57;15.63;;;;;;;;;;5112350;28;20043;-68
2021/01/18 08:40:51;;;;;;;30.33;16.20;;;;;;;;;;5115465;28;20045;-67
2021/01/18 08:43:21;;;;;;;34.20;17.37;;;;;;;;;;5116663;28;20024;-67
2021/01/18 08:45:47;;;;;;;32.50;16.33;;;;;;;;;;5116431;28;20043;-66
2021/01/18 08:48:14;;;;;;;31.53;17.23;;;;;;;;;;5115071;28;20028;-67
2021/01/18 08:50:47;;;;;;;34.43;19.00;;;;;;;;;;5113794;28;20047;-68
2021/01/18 08:53:39;;;;;;;27.10;17.45;;;;;;;;;;5114467;28;20099;-67
2021/01/18 08:56:06;;;;;;;30.57;17.07;;;;;;;;;;5113472;28;20036;-68
2021/01/18 08:58:33;;;;;;;30.97;18.73;;;;;;;;;;5116273;28;20016;-67
2021/01/18 09:01:00;;;;;;;34.17;18.67;;;;;;;;;;5115598;28;20036;-66
2021/01/18 09:03:26;;;;;;;31.80;17.80;;;;;;;;;;5116655;28;20019;-66
2021/01/18 09:05:56;;;;;;;33.77;17.87;;;;;;;;;;5114948;28;20028;-66
2021/01/18 09:08:23;;;;;;;29.83;17.43;;;;;;;;;;5113766;28;20024;-67
2021/01/18 09:10:54;;;;;;;30.00;17.30;;;;;;;;;;5113591;28;20024;-66
2021/01/18 09:13:24;;;;;;;32.20;17.43;;;;;;;;;;5115855;28;20020;-67
2021/01/18 09:15:50;;;;;;;26.23;15.47;;;;;;;;;;5116256;28;20027;-66
2021/01/18 09:18:16;;;;;;;23.17;14.20;;;;;;;;;;5116333;28;20031;-67
2021/01/18 09:20:43;;;;;;;28.00;15.70;;;;;;;;;;5115934;28;20365;-67
2021/01/18 09:23:10;;;;;;;23.80;15.63;;;;;;;;;;5116410;28;20024;-67
2021/01/18 09:25:36;;;;;;;25.33;15.83;;;;;;;;;;5116150;28;20036;-66
2021/01/18 09:28:06;;;;;;;31.70;16.33;;;;;;;;;;5115354;28;20138;-67
2021/01/18 09:30:32;;;;;;;32.00;16.97;;;;;;;;;;5116160;28;20030;-66
2021/01/18 09:32:59;;;;;;;27.87;15.53;;;;;;;;;;5116132;28;20027;-68
2021/01/18 09:35:26;;;;;;;29.10;16.20;;;;;;;;;;5115784;28;20027;-67
2021/01/18 09:37:53;;;;;;;28.20;15.33;;;;;;;;;;5115882;28;20096;-66
2021/01/18 09:40:19;;;;;;;29.83;15.17;;;;;;;;;;5115608;28;20028;-66
2021/01/18 09:42:48;;;;;;;27.93;14.87;;;;;;;;;;5115576;28;20031;-66
2021/01/18 09:45:15;;;;;;;29.17;14.63;;;;;;;;;;5114380;28;20077;-66
2021/01/18 09:47:41;;;;;;;22.20;12.97;;;;;;;;;;5112874;28;20039;-68
2021/01/18 09:50:09;;;;;;;26.47;14.50;;;;;;;;;;5113957;28;20088;-66
2021/01/18 09:52:39;;;;;;;28.20;14.47;;;;;;;;;;5114894;28;20020;-66
2021/01/18 09:55:08;;;;;;;24.20;15.20;;;;;;;;;;5115679;28;20027;-67
2021/01/18 09:57:37;;;;;;;25.00;14.03;;;;;;;;;;5113646;28;20031;-66
2021/01/18 10:00:03;;;;;;;23.63;13.77;;;;;;;;;;5115782;28;20023;-66
2021/01/18 10:02:30;;;;;;;26.60;13.60;;;;;;;;;;5115648;28;20027;-66
2021/01/18 10:04:56;;;;;;;24.10;14.60;;;;;;;;;;5115555;28;20027;-67
2021/01/18 10:07:24;;;;;;;26.93;15.47;;;;;;;;;;5115569;28;20467;-67
2021/01/18 10:09:50;;;;;;;23.87;14.80;;;;;;;;;;5115422;28;20020;-66
2021/01/18 10:12:24;;;;;;;27.43;16.37;;;;;;;;;;5115493;28;20476;-66
2021/01/18 10:14:51;;;;;;;25.20;16.37;;;;;;;;;;5115470;28;20026;-66
2021/01/18 10:17:17;;;;;;;29.07;17.57;;;;;;;;;;5115319;28;20028;-66
2021/01/18 10:19:43;;;;;;;28.13;18.37;;;;;;;;;;5115241;28;20019;-67
2021/01/18 10:22:16;;;;;;;25.17;14.50;;;;;;;;;;5115573;28;20434;-66
2021/01/18 10:24:42;;;;;;;;;;;;;;;;;;5115984;28;20035;-66
2021/01/18 10:27:18;;;;;;;21.90;13.70;;;;;;;;;;5114906;28;19903;-66
2021/01/18 10:29:45;;;;;;;21.47;13.43;;;;;;;;;;5115501;28;20448;-66
2021/01/18 10:32:11;;;;;;;21.37;12.97;;;;;;;;;;5114922;28;20068;-66
2021/01/18 10:34:37;;;;;;;28.47;15.00;;;;;;;;;;5115036;28;20043;-66
2021/01/18 10:37:12;;;;;;;27.63;15.30;;;;;;;;;;5114949;28;20106;-66
2021/01/18 10:39:38;;;;;;;34.27;15.20;;;;;;;;;;5114994;28;20024;-66
2021/01/18 10:42:06;;;;;;;22.90;14.13;;;;;;;;;;5114866;28;20460;-66
2021/01/18 10:44:32;;;;;;;33.00;15.03;;;;;;;;;;5114855;28;20024;-66
2021/01/18 10:46:59;;;;;;;31.27;16.37;;;;;;;;;;5114738;28;20049;-66
2021/01/18 10:49:26;;;;;;;25.53;15.07;;;;;;;;;;5114814;28;20028;-67
2021/01/18 10:52:02;;;;;;;27.27;14.27;;;;;;;;;;5114909;28;20068;-68
2021/01/18 10:54:28;;;;;;;24.07;15.10;;;;;;;;;;5114744;28;20460;-66
2021/01/18 10:56:55;;;;;;;26.80;15.47;;;;;;;;;;5114544;28;20477;-67
2021/01/18 10:59:21;;;;;;;29.20;14.93;;;;;;;;;;5114487;28;20042;-66
2021/01/18 11:01:59;;;;;;;29.97;15.07;;;;;;;;;;5114747;28;20046;-66
2021/01/18 11:04:25;;;;;;;25.50;15.93;;;;;;;;;;5114279;28;20027;-66
2021/01/18 11:06:52;;;;;;;28.30;15.47;;;;;;;;;;5114069;28;20038;-67
2021/01/18 11:09:26;;;;;;;23.67;14.40;;;;;;;;;;5113991;28;20026;-67
2021/01/18 11:11:53;;;;;;;21.63;13.93;;;;;;;;;;5114020;28;20073;-66
2021/01/18 11:14:19;;;;;;;29.00;14.63;;;;;;;;;;5113200;28;20073;-66
2021/01/18 11:16:55;;;;;;;25.80;15.23;;;;;;;;;;5110975;28;20038;-67
2021/01/18 11:19:23;;;;;;;29.13;15.40;;;;;;;;;;5111653;28;20054;-66
2021/01/18 11:21:49;;;;;;;27.63;15.50;;;;;;;;;;5113148;28;20473;-67
2021/01/18 11:24:15;;;;;;;24.77;14.60;;;;;;;;;;5113782;28;20030;-66
2021/01/18 11:26:41;;;;;;;23.97;14.03;;;;;;;;;;5113910;28;20464;-66
2021/01/18 11:29:07;;;;;;;20.97;13.73;;;;;;;;;;5113494;28;20048;-66
2021/01/18 11:31:33;;;;;;;23.23;13.90;;;;;;;;;;5113935;28;20484;-66
2021/01/18 11:34:00;;;;;;;22.97;14.53;;;;;;;;;;5113681;28;20059;-66
2021/01/18 11:36:26;;;;;;;23.20;14.20;;;;;;;;;;5113286;28;20028;-66
2021/01/18 11:38:53;;;;;;;25.43;14.20;;;;;;;;;;5113575;28;20031;-66
2021/01/18 11:41:19;;;;;;;23.90;14.83;;;;;;;;;;5113388;28;20040;-66
2021/01/18 11:43:45;;;;;;;23.53;14.10;;;;;;;;;;5113510;28;20031;-68
2021/01/18 11:46:16;;;;;;;22.10;14.53;;;;;;;;;;5113653;28;20396;-66
2021/01/18 11:48:42;;;;;;;20.83;14.00;;;;;;;;;;5113616;28;20091;-66
2021/01/18 11:51:08;;;;;;;33.33;15.63;;;;;;;;;;5113156;28;20048;-66
2021/01/18 11:53:34;;;;;;;22.40;13.70;;;;;;;;;;5113531;28;20357;-67
2021/01/18 11:56:00;;;;;;;21.33;13.43;;;;;;;;;;5113490;28;20079;-68
2021/01/18 11:58:26;;;;;;;26.03;12.80;;;;;;;;;;5113328;28;20094;-67
2021/01/18 12:00:52;;;;;;;22.30;14.20;;;;;;;;;;5113188;28;20169;-67
2021/01/18 12:03:18;;;;;;;19.93;13.37;;;;;;;;;;5113552;28;20061;-67
2021/01/18 12:05:44;;;;;;;19.83;13.60;;;;;;;;;;5113553;28;20468;-67
2021/01/18 12:08:10;;;;;;;19.87;12.97;;;;;;;;;;5112891;28;20024;-66
2021/01/18 12:10:38;;;;;;;23.30;13.53;;;;;;;;;;5113102;28;20026;-67
2021/01/18 12:13:05;;;;;;;24.07;14.83;;;;;;;;;;5113418;28;20479;-68
2021/01/18 12:15:31;;;;;;;23.63;14.17;;;;;;;;;;5115742;28;20069;-67
2021/01/18 12:17:57;;;;;;;21.20;13.67;;;;;;;;;;5117348;28;20051;-66
2021/01/18 12:20:23;;;;;;;25.80;14.53;;;;;;;;;;5117356;28;20043;-67
2021/01/18 12:22:53;;;;;;;20.63;13.43;;;;;;;;;;5117440;28;20057;-68
2021/01/18 12:25:19;;;;;;;23.17;13.97;;;;;;;;;;5117563;28;20077;-67
2021/01/18 12:27:49;;;;;;;21.70;12.77;;;2.70;61.60;;;;;;5117155;28;20039;-67
2021/01/18 12:30:16;;;;;;;21.03;12.27;;;5.30;58.60;;;;;;5117161;28;20059;-66
2021/01/18 12:32:41;;;;;;;16.53;11.37;;;5.30;57.70;;;;;;5117461;28;20084;-66
2021/01/18 12:35:08;;;;;;;20.67;11.73;;;;;;;;;;5117299;28;20028;-66
2021/01/18 12:37:34;;;;;;;19.00;10.57;;;;;;;;;;5116834;28;20088;-66
2021/01/18 12:40:00;;;;;;;23.27;11.83;;;;;;;;;;5116576;28;20034;-67
2021/01/18 12:42:26;;;;;;;19.57;10.03;;;;;;;;;;5116793;28;20028;-66
2021/01/18 12:44:52;;;;;;;14.47;10.17;;;;;;;;;;5116624;28;20020;-66
2021/01/18 12:47:18;;;;;;;21.30;11.23;;;;;;;;;;5116775;28;20480;-67
2021/01/18 12:49:44;;;;;;;20.30;12.20;;;;;;;;;;5116525;28;20533;-66
2021/01/18 12:52:10;;;;;;;16.33;9.10;;;;;;;;;;5116255;28;20024;-67
2021/01/18 12:54:37;;;;;;;16.67;9.70;;;;;;;;;;5116812;28;20388;-67
2021/01/18 12:57:03;;;;;;;12.43;8.77;;;;;;;;;;5116393;28;20515;-66
2021/01/18 12:59:29;;;;;;;16.97;10.73;;;;;;;;;;5116443;28;20408;-66
2021/01/18 13:01:55;;;;;;;15.70;10.37;;;;;;;;;;5116638;28;20837;-67
2021/01/18 13:04:21;;;;;;;13.30;8.90;;;;;;;;;;5116449;28;20054;-66
2021/01/18 13:06:49;;;;;;;13.13;7.37;;;;;;;;;;5116150;28;20020;-66
2021/01/18 13:09:19;;;;;;;11.87;7.93;;;;;;;;;;5116838;28;20020;-67
2021/01/18 13:11:47;;;;;;;12.93;7.93;;;;;;;;;;5116474;28;20095;-66
2021/01/18 13:14:13;;;;;;;16.70;8.27;;;;;;;;;;5116126;28;20023;-66
2021/01/18 13:16:39;;;;;;;13.07;7.93;;;;;;;;;;5116002;28;20019;-66
2021/01/18 13:19:05;;;;;;;10.43;8.47;;;;;;;;;;5116330;28;20023;-66
2021/01/18 13:21:31;;;;;;;13.07;8.40;;;;;;;;;;5122479;27;20384;-66
2021/01/18 13:23:57;;;;;;;12.97;7.97;;;;;;;;;;5134127;27;20051;-67
2021/01/18 13:26:24;;;;;;;14.20;8.50;;;;;;;;;;5132134;27;20042;-66
2021/01/18 13:28:52;;;;;;;12.53;8.33;;;;;;;;;;5135241;27;20045;-67
2021/01/18 13:31:18;;;;;;;17.97;8.10;;;;;;;;;;5136295;27;20086;-66
2021/01/18 13:33:48;;;;;;;15.70;8.40;;;;;;;;;;5136039;27;20023;-66
2021/01/18 13:36:22;;;;;;;10.87;8.53;;;;;;;;;;5136552;27;20050;-66
2021/01/18 13:38:49;;;;;;;12.60;8.30;;;;;;;;;;5136132;27;20034;-66
2021/01/18 13:41:15;;;;;;;12.13;8.77;;;;;;;;;;5136249;27;20035;-67
2021/01/18 13:43:42;;;;;;;12.07;8.47;;;;;;;;;;5135058;27;20064;-66
2021/01/18 13:46:16;;;;;;;15.27;8.60;;;;;;;;;;5134851;27;20033;-67
2021/01/18 13:48:42;;;;;;;11.83;8.83;;;;;;;;;;5134596;27;20463;-66
2021/01/18 13:51:12;;;;;;;13.13;8.50;;;;;;;;;;5133440;27;20329;-67
2021/01/18 13:53:38;;;;;;;14.10;8.17;;;;;;;;;;5133872;27;20030;-67
2021/01/18 13:56:05;;;;;;;12.90;9.47;;;;;;;;;;5125159;27;20376;-68
2021/01/18 13:58:31;;;;;;;15.20;9.17;;;;;;;;;;5112785;28;20059;-68
2021/01/18 14:00:57;;;;;;;16.17;9.17;;;;;;;;;;5114338;28;20063;-67
2021/01/18 14:03:23;;;;;;;12.47;9.17;;;;;;;;;;5114670;28;20499;-69
2021/01/18 14:05:49;;;;;;;14.27;9.23;;;;;;;;;;5115080;28;20656;-67
2021/01/18 14:08:15;;;;;;;13.83;8.50;;;;;;;;;;5114622;28;20456;-67
2021/01/18 14:10:41;;;;;;;13.17;9.17;;;;;;;;;;5114735;28;20027;-67
2021/01/18 14:13:07;;;;;;;15.50;8.80;;;;;;;;;;5114403;28;20149;-67
2021/01/18 14:15:33;;;;;;;12.83;8.77;;;;;;;;;;5114221;28;20028;-67
2021/01/18 14:17:59;;;;;;;12.83;8.83;;;;;;;;;;5114292;28;20421;-68
2021/01/18 14:20:25;;;;;;;19.77;8.73;;;;;;;;;;5114174;28;20034;-68
2021/01/18 14:22:51;;;;;;;17.47;11.07;;;;;;;;;;5114384;28;20023;-68
2021/01/18 14:25:17;;;;;;;16.87;9.60;;;;;;;;;;5115162;28;20024;-66